createdAt,value
2022-11-28T00:01:43.856Z,83.20
2022-11-28T00:06:49.161Z,90.80
2022-11-28T00:11:51.442Z,79.90
2022-11-28T00:16:57.803Z,87.70
2022-11-28T00:21:59.586Z,92.70
2022-11-28T00:37:06.353Z,87.60
2022-11-28T00:42:08.121Z,91.40
2022-11-28T00:47:09.861Z,82.10
2022-11-28T00:52:11.603Z,77.00
2022-11-28T00:57:13.458Z,77.10
2022-11-28T01:02:15.356Z,74.90
2022-11-28T01:07:17.425Z,73.30
2022-11-28T01:12:19.261Z,76.00
2022-11-28T01:22:22.647Z,61.60
2022-11-28T01:27:24.729Z,74.60
2022-11-28T01:32:26.459Z,84.90
2022-11-28T01:42:31.392Z,87.20
2022-11-28T01:47:34.503Z,76.90
2022-11-28T01:52:39.704Z,82.00
2022-11-28T01:57:42.568Z,76.20
2022-11-28T02:03:27.745Z,80.80
2022-11-28T02:08:34.135Z,82.40
2022-11-28T02:14:09.201Z,85.00
2022-11-28T02:19:37.602Z,84.60
2022-11-28T02:24:55.150Z,83.20
2022-11-28T02:30:15.256Z,84.60
2022-11-28T02:35:28.509Z,89.90
2022-11-28T02:40:49.327Z,96.70
2022-11-28T02:46:06.153Z,95.20
2022-11-28T02:51:17.285Z,99.80
2022-11-28T02:56:19.645Z,90.50
2022-11-28T03:01:31.241Z,93.40
2022-11-28T03:07:01.598Z,95.80
2022-11-28T03:12:22.327Z,87.20
2022-11-28T03:17:59.629Z,80.30
2022-11-28T03:23:10.732Z,69.50
2022-11-28T03:28:23.357Z,52.50
2022-11-28T03:33:30.645Z,60.60
2022-11-28T03:38:38.958Z,56.60
2022-11-28T03:43:47.551Z,51.90
2022-11-28T03:48:54.843Z,50.50
2022-11-28T03:54:03.871Z,51.80
2022-11-28T03:59:13.102Z,53.90
2022-11-28T04:04:39.402Z,52.10
2022-11-28T04:09:53.875Z,52.60
2022-11-28T04:15:04.058Z,68.80
2022-11-28T04:20:26.404Z,82.90
2022-11-28T04:25:32.967Z,74.70
2022-11-28T04:30:37.242Z,75.80
2022-11-28T04:35:47.500Z,73.50
2022-11-28T04:40:57.446Z,65.00
2022-11-28T04:46:10.042Z,64.60
2022-11-28T04:51:27.728Z,61.90
2022-11-28T04:56:39.032Z,59.20
2022-11-28T05:01:43.632Z,59.20
2022-11-28T05:06:45.778Z,59.70
2022-11-28T05:11:47.558Z,63.60
2022-11-28T05:16:49.783Z,58.80
2022-11-28T05:21:53.562Z,63.30
2022-11-28T05:26:55.351Z,61.00
2022-11-28T05:31:57.271Z,61.60
2022-11-28T05:36:59.123Z,60.20
2022-11-28T05:52:04.542Z,59.00
2022-11-28T05:57:07.339Z,63.70
2022-11-28T06:02:09.273Z,56.40
2022-11-28T06:07:11.132Z,57.90
2022-11-28T06:12:12.982Z,54.80
2022-11-28T06:17:14.858Z,54.90
2022-11-28T06:22:16.611Z,57.30
2022-11-28T06:27:18.417Z,58.80
2022-11-28T06:32:22.165Z,60.10
2022-11-28T06:37:24.200Z,60.50
2022-11-28T06:42:25.941Z,58.10
2022-11-28T06:52:29.318Z,72.10
2022-11-28T06:57:32.723Z,101.00
2022-11-28T07:02:34.591Z,64.70
2022-11-28T07:07:52.775Z,66.70
2022-11-28T07:13:05.180Z,60.50
2022-11-28T07:23:09.043Z,138.60
2022-11-28T07:28:10.746Z,95.00
2022-11-28T07:38:33.558Z,101.00
2022-11-28T07:43:35.446Z,68.20
2022-11-28T07:48:37.760Z,62.60
2022-11-28T07:53:40.759Z,56.80
2022-11-28T07:58:44.244Z,52.70
2022-11-28T08:03:46.951Z,55.50
2022-11-28T08:08:50.567Z,62.50
2022-11-28T08:13:55.037Z,70.50
2022-11-28T08:19:03.763Z,71.50
2022-11-28T08:24:08.176Z,52.00
2022-11-28T08:29:10.085Z,52.90
2022-11-28T08:34:13.045Z,56.90
2022-11-28T08:39:23.832Z,51.60
2022-11-28T08:44:30.162Z,49.50
2022-11-28T08:49:32.907Z,54.10
2022-11-28T08:54:34.901Z,59.30
2022-11-28T08:59:37.237Z,52.70
2022-11-28T09:04:39.058Z,52.80
2022-11-28T09:09:40.909Z,54.50
2022-11-28T09:14:42.722Z,50.80
2022-11-28T09:19:44.994Z,43.10
2022-11-28T09:24:47.684Z,35.90
2022-11-28T09:29:49.950Z,39.10
2022-11-28T09:34:51.808Z,42.70
2022-11-28T09:40:11.989Z,40.40
2022-11-28T09:45:18.943Z,50.70
2022-11-28T09:50:32.136Z,37.80
2022-11-28T09:55:45.171Z,60.70
2022-11-28T10:01:01.299Z,63.10
2022-11-28T10:06:18.228Z,41.70
2022-11-28T10:11:52.240Z,52.80
2022-11-28T10:16:59.070Z,32.00
2022-11-28T10:22:05.176Z,28.40
2022-11-28T10:27:07.268Z,28.10
2022-11-28T10:32:16.494Z,24.90
2022-11-28T10:37:27.643Z,29.30
2022-11-28T10:42:52.083Z,54.60
2022-11-28T10:48:38.377Z,31.20
2022-11-28T10:53:59.364Z,32.60
2022-11-28T10:59:20.754Z,46.60
2022-11-28T11:04:26.858Z,50.30
2022-11-28T11:09:28.730Z,29.80
2022-11-28T11:14:42.061Z,24.90
2022-11-28T11:19:44.053Z,26.80
2022-11-28T11:25:14.420Z,25.70
2022-11-28T11:30:46.855Z,47.30
2022-11-28T11:35:49.591Z,24.90
2022-11-28T11:40:52.134Z,28.70
2022-11-28T11:46:14.613Z,28.10
2022-11-28T11:51:28.847Z,26.50
2022-11-28T11:56:36.680Z,54.00
2022-11-28T12:01:40.299Z,25.40
2022-11-28T12:06:50.790Z,24.10
2022-11-28T12:11:59.596Z,21.70
2022-11-28T12:17:48.372Z,38.90
2022-11-28T12:23:01.785Z,21.90
2022-11-28T12:28:32.921Z,20.40
2022-11-28T12:33:43.709Z,46.60
2022-11-28T12:38:54.703Z,22.60
2022-11-28T12:44:30.539Z,20.40
2022-11-28T12:49:52.316Z,18.10
2022-11-28T12:55:04.953Z,15.90
2022-11-28T13:00:14.904Z,21.00
2022-11-28T13:05:22.975Z,18.50
2022-11-28T13:10:50.626Z,38.60
2022-11-28T13:16:27.038Z,37.20
2022-11-28T13:21:44.716Z,33.00
2022-11-28T13:26:59.088Z,38.20
2022-11-28T13:32:11.368Z,39.10
2022-11-28T13:43:08.208Z,45.30
2022-11-28T13:54:22.357Z,55.30
2022-11-28T13:59:25.350Z,52.40
2022-11-28T14:04:29.744Z,53.50
2022-11-28T14:09:44.655Z,60.00
2022-11-28T14:15:10.005Z,54.20
2022-11-28T14:20:14.896Z,57.90
2022-11-28T14:25:19.885Z,61.80
2022-11-28T14:30:43.535Z,69.00
2022-11-28T14:35:54.553Z,71.00
2022-11-28T14:40:56.943Z,76.10
2022-11-28T14:46:24.478Z,70.20
2022-11-28T14:51:47.378Z,82.30
2022-11-28T14:56:56.651Z,82.00
2022-11-28T15:02:11.198Z,85.20
2022-11-28T15:08:05.410Z,91.80
2022-11-28T15:13:19.476Z,99.10
2022-11-28T15:18:25.131Z,113.90
2022-11-28T15:23:33.223Z,92.90
2022-11-28T15:28:36.276Z,97.00
2022-11-28T15:33:39.700Z,96.50
2022-11-28T15:38:43.529Z,89.80
2022-11-28T15:43:46.425Z,70.80
2022-11-28T15:48:50.515Z,77.50
2022-11-28T15:53:52.388Z,35.70
2022-11-28T15:58:54.918Z,27.50
2022-11-28T16:04:05.439Z,27.00
2022-11-28T16:09:23.945Z,26.50
2022-11-28T16:14:30.270Z,29.80
2022-11-28T16:19:35.166Z,26.00
2022-11-28T16:24:58.030Z,29.50
2022-11-28T16:30:01.768Z,40.40
2022-11-28T16:35:04.900Z,42.10
2022-11-28T16:40:21.870Z,48.00
2022-11-28T16:45:33.198Z,59.10
2022-11-28T16:50:36.431Z,42.20
2022-11-28T16:55:39.531Z,51.90
2022-11-28T17:00:50.381Z,61.40
2022-11-28T17:05:52.253Z,62.30
2022-11-28T17:10:54.050Z,65.20
2022-11-28T17:15:55.784Z,60.80
2022-11-28T17:20:57.633Z,68.50
2022-11-28T17:25:59.440Z,61.30
2022-11-28T17:31:01.226Z,52.60
2022-11-28T17:36:03.851Z,54.00
2022-11-28T17:41:06.215Z,54.70
2022-11-28T17:46:08.787Z,54.40
2022-11-28T17:51:10.795Z,52.00
2022-11-28T17:56:13.104Z,51.40
2022-11-28T18:01:19.113Z,54.50
2022-11-28T18:06:22.729Z,55.80
2022-11-28T18:11:24.874Z,49.40
2022-11-28T18:16:26.743Z,43.10
2022-11-28T18:21:28.563Z,44.90
2022-11-28T18:26:30.358Z,35.40
2022-11-28T18:31:34.401Z,40.20
2022-11-28T18:36:38.105Z,43.00
2022-11-28T18:41:40.796Z,54.70
2022-11-28T18:46:42.599Z,74.40
2022-11-28T18:51:44.820Z,80.30
2022-11-28T18:56:47.312Z,78.00
2022-11-28T19:01:49.255Z,68.10
2022-11-28T19:06:51.991Z,63.30
2022-11-28T19:11:56.126Z,73.40
2022-11-28T19:16:58.438Z,68.90
2022-11-28T19:22:00.500Z,69.20
2022-11-28T19:27:04.147Z,63.00
2022-11-28T19:32:06.261Z,64.30
2022-11-28T19:37:08.052Z,71.20
2022-11-28T19:42:09.909Z,54.60
2022-11-28T19:47:11.961Z,63.10
2022-11-28T19:52:14.024Z,67.50
2022-11-28T19:57:15.905Z,74.40
2022-11-28T20:02:20.367Z,132.80
2022-11-28T20:07:22.591Z,102.70
2022-11-28T20:12:24.620Z,85.10
2022-11-28T20:17:26.619Z,90.10
2022-11-28T20:27:30.094Z,82.90
2022-11-28T20:32:32.303Z,84.10
2022-11-28T20:37:34.221Z,86.80
2022-11-28T20:42:39.823Z,92.30
2022-11-28T20:47:45.481Z,91.60
2022-11-28T20:52:51.335Z,103.00
2022-11-28T20:57:53.206Z,93.80
2022-11-28T21:02:55.052Z,88.50
2022-11-28T21:07:56.999Z,88.00
2022-11-28T21:12:58.917Z,92.40
2022-11-28T21:18:01.139Z,92.40
2022-11-28T21:23:03.056Z,93.70
2022-11-28T21:28:05.393Z,93.80
2022-11-28T21:33:07.126Z,93.70
2022-11-28T21:38:09.052Z,96.40
2022-11-28T21:43:10.756Z,106.80
2022-11-28T21:48:12.994Z,90.70
2022-11-28T21:53:16.875Z,92.20
2022-11-28T21:58:22.423Z,104.40
2022-11-28T22:03:28.330Z,89.70
2022-11-28T22:08:30.269Z,80.70
2022-11-28T22:13:39.591Z,79.10
2022-11-28T22:18:41.511Z,67.50
2022-11-28T22:23:43.830Z,74.30
2022-11-28T22:28:49.116Z,77.80
2022-11-28T22:33:54.972Z,84.70
2022-11-28T22:38:58.092Z,85.60
2022-11-28T22:44:01.805Z,80.00
2022-11-28T22:49:04.955Z,83.90
2022-11-28T22:54:07.478Z,72.50
2022-11-28T22:59:13.956Z,70.60
2022-11-28T23:04:16.297Z,75.20
2022-11-28T23:09:18.721Z,91.40
2022-11-28T23:14:20.688Z,98.40
2022-11-28T23:19:23.111Z,83.00
2022-11-28T23:24:25.079Z,67.40
2022-11-28T23:29:27.459Z,71.00
2022-11-28T23:34:30.008Z,73.20
2022-11-28T23:39:33.869Z,79.00
2022-11-28T23:44:39.189Z,76.10
2022-11-28T23:49:40.896Z,75.00
2022-11-28T23:54:43.000Z,70.20
2022-11-28T23:59:44.963Z,74.00
